Time;durP1;ratioP1;P1;durP2;ratioP2;P2;SDS_P1;SDS_P2;PMS_P1;PMS_P2;Temp;Humidity;BMP_temperature;BMP_pressure;BME280_temperature;BME280_humidity;BME280_pressure;Samples;Min_cycle;Max_cycle;Signal;HPM_P1;HPM_P2
2021/05/20 00:00:17;;;;;;;1.53;1.20;;;6.40;99.90;;;;;;5059157;28;20404;-83
2021/05/20 00:02:43;;;;;;;3.57;1.30;;;6.50;99.90;;;;;;5057021;28;20472;-83
2021/05/20 00:05:11;;;;;;;1.83;1.10;;;6.50;99.90;;;;;;5059266;28;20416;-83
2021/05/20 00:07:37;;;;;;;1.30;0.93;;;;;;;;;;5059650;28;20459;-83
2021/05/20 00:10:04;;;;;;;2.27;1.00;;;6.40;99.90;;;;;;5060805;28;20408;-83
2021/05/20 00:12:30;;;;;;;1.10;1.03;;;;;;;;;;5056114;28;20922;-83
2021/05/20 00:14:56;;;;;;;2.10;0.90;;;6.50;99.90;;;;;;5054553;28;20455;-83
2021/05/20 00:17:22;;;;;;;1.47;1.00;;;;;;;;;;5064602;28;20170;-83
2021/05/20 00:19:47;;;;;;;1.53;1.30;;;6.40;99.90;;;;;;5058388;28;20177;-83
2021/05/20 00:22:13;;;;;;;2.97;1.20;;;6.40;99.90;;;;;;5040150;28;20239;-83
2021/05/20 00:24:39;;;;;;;1.67;0.90;;;;;;;;;;5058325;28;20185;-83
2021/05/20 00:27:05;;;;;;;1.20;1.00;;;6.40;99.90;;;;;;5040607;28;20188;-83
2021/05/20 00:29:31;;;;;;;1.13;1.03;;;;;;;;;;5057175;28;20216;-83
2021/05/20 00:31:56;;;;;;;1.57;0.90;;;6.60;99.90;;;;;;5040716;28;20201;-83
2021/05/20 00:34:22;;;;;;;1.30;1.03;;;;;;;;;;5058388;28;20177;-83
2021/05/20 00:36:48;;;;;;;1.20;1.10;;;;;;;;;;5058429;28;20181;-83
2021/05/20 00:39:14;;;;;;;2.30;1.30;;;6.30;99.90;;;;;;5058923;28;20437;-83
2021/05/20 00:41:40;;;;;;;1.40;1.30;;;;;;;;;;5040893;28;20173;-83
2021/05/20 00:44:06;;;;;;;1.30;1.20;;;6.40;99.90;;;;;;5039557;28;20220;-83
2021/05/20 00:46:32;;;;;;;3.10;1.00;;;;;;;;;;5059138;28;20201;-83
2021/05/20 00:48:58;;;;;;;1.40;1.00;;;6.70;99.90;;;;;;5047629;28;20177;-83
2021/05/20 00:51:23;;;;;;;1.17;1.07;;;6.40;99.90;;;;;;5072803;28;20258;-83
2021/05/20 00:53:50;;;;;;;3.00;1.33;;;6.40;99.90;;;;;;5056025;28;20201;-83
2021/05/20 00:56:20;;;;;;;1.30;1.20;;;6.40;99.90;;;;;;5053928;28;20201;-83
2021/05/20 00:58:46;;;;;;;1.23;1.13;;;;;;;;;;5051480;28;20413;-83
2021/05/20 01:01:12;;;;;;;1.20;0.93;;;6.40;99.90;;;;;;5047917;28;20412;-83
2021/05/20 01:03:39;;;;;;;2.73;2.10;;;;;;;;;;5040809;28;20447;-83
2021/05/20 01:06:05;;;;;;;1.20;1.10;;;6.40;99.90;;;;;;5043747;28;20416;-82
2021/05/20 01:08:32;;;;;;;1.60;1.37;;;;;;;;;;5061962;28;20914;-82
2021/05/20 01:10:59;;;;;;;1.17;1.07;;;6.40;99.90;;;;;;5045340;28;20420;-83
2021/05/20 01:13:25;;;;;;;2.03;1.13;;;6.50;99.90;;;;;;5044992;28;20479;-83
2021/05/20 01:15:51;;;;;;;1.23;1.13;;;;;;;;;;5062447;28;20213;-83
2021/05/20 01:18:17;;;;;;;1.10;1.00;;;;;;;;;;5043964;28;20273;-83
2021/05/20 01:20:44;;;;;;;1.50;1.33;;;6.50;99.90;;;;;;5061368;28;20177;-83
2021/05/20 01:23:17;;;;;;;1.57;1.13;;;6.40;99.90;;;;;;5060669;28;20245;-82
2021/05/20 01:25:46;;;;;;;1.87;1.00;;;6.30;99.90;;;;;;5060699;28;20404;-83
2021/05/20 01:28:14;;;;;;;2.07;1.20;;;6.30;99.90;;;;;;5043006;28;20420;-83
2021/05/20 01:30:41;;;;;;;2.13;1.10;;;6.30;99.90;;;;;;5043567;28;20952;-83
2021/05/20 01:33:07;;;;;;;1.37;1.27;;;;;;;;;;5061169;28;20494;-83
2021/05/20 01:35:33;;;;;;;2.77;1.53;;;;;;;;;;5043538;28;20487;-82
2021/05/20 01:41:00;;;;;;;1.00;0.90;;;6.20;99.90;;;;;;5062313;28;20722;-82
2021/05/20 01:43:27;;;;;;;2.40;1.37;;;6.30;99.90;;;;;;5061371;28;20432;-83
2021/05/20 01:46:00;;;;;;;2.03;1.43;;;;;;;;;;5059792;28;20416;-82
2021/05/20 01:48:30;;;;;;;2.80;1.50;;;6.30;99.90;;;;;;5042977;28;20419;-82
2021/05/20 01:51:10;;;;;;;1.40;1.30;;;6.30;99.90;;;;;;5061656;28;20397;-83
2021/05/20 01:53:38;;;;;;;1.57;1.30;;;6.30;99.90;;;;;;5061473;28;20428;-82
2021/05/20 01:56:05;;;;;;;1.77;1.67;;;6.30;99.90;;;;;;5059942;28;20463;-82
2021/05/20 01:58:31;;;;;;;2.33;1.60;;;;;;;;;;5059698;28;20423;-83
2021/05/20 02:00:57;;;;;;;1.60;1.50;;;6.30;99.90;;;;;;5043309;28;20407;-83
2021/05/20 02:03:23;;;;;;;2.60;1.80;;;;;;;;;;5043194;28;20209;-82
2021/05/20 02:05:49;;;;;;;1.43;1.33;;;;;;;;;;5042856;28;20584;-82
2021/05/20 02:08:15;;;;;;;2.73;1.40;;;;;;;;;;5042812;28;20418;-82
2021/05/20 02:10:42;;;;;;;1.40;1.30;;;;;;;;;;5043485;28;20424;-82
2021/05/20 02:13:08;;;;;;;1.40;1.30;;;6.30;99.90;;;;;;5041898;28;20439;-82
2021/05/20 02:15:34;;;;;;;1.87;1.50;;;;;;;;;;5040900;28;20460;-82
2021/05/20 02:18:00;;;;;;;1.57;1.27;;;6.30;99.90;;;;;;5040674;28;20415;-82
2021/05/20 02:20:26;;;;;;;1.47;1.30;;;;;;;;;;5040209;28;20585;-82
2021/05/20 02:22:52;;;;;;;1.90;1.80;;;6.40;99.90;;;;;;5040574;28;20213;-82
2021/05/20 02:25:18;;;;;;;1.47;1.37;;;6.20;99.90;;;;;;5056394;28;20185;-82
2021/05/20 02:27:45;;;;;;;1.70;1.60;;;;;;;;;;5039281;28;20416;-82
2021/05/20 02:30:14;;;;;;;1.83;1.47;;;6.40;99.90;;;;;;5049707;28;20404;-82
2021/05/20 02:32:40;;;;;;;1.50;1.40;;;;;;;;;;5064341;28;20444;-82
2021/05/20 02:35:07;;;;;;;1.70;1.60;;;6.10;99.90;;;;;;5064540;28;20459;-82
2021/05/20 02:37:33;;;;;;;1.47;1.30;;;;;;;;;;5060729;28;20241;-82
2021/05/20 02:39:58;;;;;;;2.80;1.63;;;6.20;99.90;;;;;;5042179;28;20420;-82
2021/05/20 02:42:24;;;;;;;1.57;1.47;;;;;;;;;;5059876;28;20273;-82
2021/05/20 02:44:51;;;;;;;2.33;1.40;;;;;;;;;;5042277;28;20191;-82
2021/05/20 02:47:17;;;;;;;1.97;1.60;;;;;;;;;;5060271;28;20412;-82
2021/05/20 02:49:45;;;;;;;3.30;1.30;;;6.20;99.90;;;;;;5041941;28;20477;-83
2021/05/20 02:52:11;;;;;;;1.50;1.40;;;6.40;99.90;;;;;;5059994;28;20193;-82
2021/05/20 02:54:40;;;;;;;2.43;1.60;;;6.20;99.90;;;;;;5059943;28;20448;-82
2021/05/20 02:57:06;;;;;;;1.77;1.13;;;;;;;;;;5042225;28;20547;-82
2021/05/20 02:59:33;;;;;;;1.20;1.10;;;;;;;;;;5042046;28;20499;-82
2021/05/20 03:02:08;;;;;;;2.73;1.77;;;;;;;;;;5041496;28;20463;-82
2021/05/20 03:04:37;;;;;;;1.67;1.20;;;6.20;99.90;;;;;;5059865;28;20735;-82
2021/05/20 03:07:05;;;;;;;2.10;1.23;;;6.20;99.90;;;;;;5041816;28;20424;-83
2021/05/20 03:09:31;;;;;;;1.20;1.10;;;;;;;;;;5059471;28;20909;-82
2021/05/20 03:11:59;;;;;;;1.30;1.20;;;6.30;99.90;;;;;;5041971;28;20811;-83
2021/05/20 03:14:26;;;;;;;1.70;1.30;;;;;;;;;;5041351;28;20423;-82
2021/05/20 03:16:52;;;;;;;1.23;1.13;;;;;;;;;;5041551;28;20782;-82
2021/05/20 03:19:18;;;;;;;2.80;1.30;;;;;;;;;;5041242;28;20414;-82
2021/05/20 03:21:45;;;;;;;1.77;1.40;;;;;;;;;;5058848;28;20917;-82
2021/05/20 03:24:11;;;;;;;1.40;1.30;;;;;;;;;;5040580;28;20443;-82
2021/05/20 03:26:37;;;;;;;1.53;1.43;;;;;;;;;;5040187;28;20424;-82
2021/05/20 03:29:04;;;;;;;1.43;1.33;;;6.20;99.90;;;;;;5039610;28;20779;-83
2021/05/20 03:31:30;;;;;;;2.57;1.33;;;;;;;;;;5058242;28;20412;-82
2021/05/20 03:33:56;;;;;;;1.30;1.20;;;;;;;;;;5039690;28;20456;-82
2021/05/20 03:36:22;;;;;;;1.60;1.50;;;;;;;;;;5057582;28;20459;-82
2021/05/20 03:38:48;;;;;;;1.33;1.10;;;;;;;;;;5039845;28;20408;-82
2021/05/20 03:41:14;;;;;;;1.67;1.57;;;;;;;;;;5058927;28;20495;-82
2021/05/20 03:43:40;;;;;;;1.70;1.60;;;;;;;;;;5040133;28;20942;-83
2021/05/20 03:46:07;;;;;;;1.53;1.43;;;;;;;;;;5058925;28;20451;-83
2021/05/20 03:48:33;;;;;;;1.70;1.60;;;;;;;;;;5039846;28;20420;-84
2021/05/20 03:51:00;;;;;;;2.20;1.20;;;6.30;99.90;;;;;;5041943;28;20181;-84
2021/05/20 03:53:31;;;;;;;2.47;1.40;;;;;;;;;;5044493;28;20949;-83
2021/05/20 03:56:01;;;;;;;1.67;1.50;;;6.30;99.90;;;;;;5043893;28;20456;-83
2021/05/20 03:58:28;;;;;;;1.40;1.30;;;6.30;99.90;;;;;;5062944;28;20475;-84
2021/05/20 04:00:54;;;;;;;1.40;1.30;;;;;;;;;;5061796;28;20415;-83
2021/05/20 04:03:30;;;;;;;2.17;1.60;;;6.30;99.90;;;;;;5063347;28;20486;-84
2021/05/20 04:05:57;;;;;;;1.53;1.13;;;6.40;99.90;;;;;;5045260;28;20456;-85
2021/05/20 04:08:23;;;;;;;1.70;1.60;;;;;;;;;;5064022;28;20423;-84
2021/05/20 04:10:50;;;;;;;4.77;1.30;;;;;;;;;;5065163;28;20420;-84
2021/05/20 04:13:36;;;;;;;2.30;1.63;;;6.30;99.90;;;;;;5048217;28;20444;-84
2021/05/20 04:16:03;;;;;;;2.20;1.70;;;6.40;99.90;;;;;;5048309;28;20460;-84
2021/05/20 04:18:29;;;;;;;2.10;1.40;;;6.30;99.90;;;;;;5069047;28;20415;-83
2021/05/20 04:20:55;;;;;;;1.97;1.40;;;6.40;99.90;;;;;;5064744;28;20774;-83
2021/05/20 04:23:22;;;;;;;1.60;1.20;;;6.40;99.90;;;;;;5040222;28;20791;-83
2021/05/20 04:25:48;;;;;;;1.43;1.33;;;6.40;99.90;;;;;;5056927;28;20419;-83
2021/05/20 04:28:14;;;;;;;2.00;1.30;;;;;;;;;;5040449;28;20423;-83
2021/05/20 04:30:41;;;;;;;1.63;1.40;;;;;;;;;;5057848;28;20408;-83
2021/05/20 04:33:07;;;;;;;1.70;1.60;;;;;;;;;;5040043;28;20435;-83
2021/05/20 04:35:33;;;;;;;3.90;1.30;;;6.30;99.90;;;;;;5057112;28;20546;-83
2021/05/20 04:38:00;;;;;;;1.30;1.20;;;;;;;;;;5038934;28;20506;-83
2021/05/20 04:40:26;;;;;;;2.17;1.30;;;;;;;;;;5042678;28;20902;-83
2021/05/20 04:42:52;;;;;;;11.73;7.90;;;6.60;99.90;;;;;;5042224;28;20930;-83
2021/05/20 04:45:18;;;;;;;1.60;1.50;;;6.60;99.90;;;;;;5052575;28;20424;-84
2021/05/20 04:47:44;;;;;;;1.50;1.40;;;6.60;99.90;;;;;;5046732;28;20474;-83
2021/05/20 04:50:11;;;;;;;1.53;1.43;;;6.70;99.90;;;;;;5064590;28;20416;-83
2021/05/20 04:52:37;;;;;;;1.33;1.20;;;;;;;;;;5063814;28;20435;-83
2021/05/20 04:55:03;;;;;;;1.23;1.13;;;6.90;99.90;;;;;;5048450;28;20458;-83
2021/05/20 04:57:29;;;;;;;2.17;1.40;;;6.90;99.90;;;;;;5049120;28;20189;-83
2021/05/20 04:59:55;;;;;;;1.20;1.10;;;;;;;;;;5049961;28;20420;-83
2021/05/20 05:02:21;;;;;;;0.90;0.90;;;7.10;99.90;;;;;;5064362;28;20189;-83
2021/05/20 05:04:47;;;;;;;1.20;1.00;;;;;;;;;;5065157;28;20177;-83
2021/05/20 05:07:12;;;;;;;0.80;0.80;;;7.10;99.90;;;;;;5064166;28;20209;-84
2021/05/20 05:09:38;;;;;;;1.30;1.10;;;7.20;99.90;;;;;;5045635;28;20197;-84
2021/05/20 05:12:04;;;;;;;1.13;0.90;;;7.20;99.90;;;;;;5063169;28;20710;-84
2021/05/20 05:14:30;;;;;;;1.13;1.00;;;7.10;99.90;;;;;;5045751;28;20192;-84
2021/05/20 05:16:56;;;;;;;1.97;1.10;;;;;;;;;;5062788;28;20181;-84
2021/05/20 05:19:22;;;;;;;0.90;0.90;;;;;;;;;;5046147;28;20178;-83
2021/05/20 05:21:48;;;;;;;2.73;1.17;;;;;;;;;;5044797;28;20197;-84
2021/05/20 05:24:13;;;;;;;4.20;1.30;;;7.10;99.90;;;;;;5063364;28;20897;-83
2021/05/20 05:26:40;;;;;;;1.57;1.40;;;;;;;;;;5063517;28;20188;-84
2021/05/20 05:29:06;;;;;;;1.33;1.10;;;7.10;99.90;;;;;;5044949;28;20220;-83
2021/05/20 05:31:32;;;;;;;0.80;0.80;;;;;;;;;;5064864;28;20971;-84
2021/05/20 05:33:59;;;;;;;2.07;1.10;;;;;;;;;;5045003;28;20444;-83
2021/05/20 05:36:25;;;;;;;1.17;1.07;;;7.20;99.90;;;;;;5044929;28;20483;-82
2021/05/20 05:38:51;;;;;;;1.37;1.27;;;7.30;99.90;;;;;;5046372;28;20184;-84
2021/05/20 05:41:18;;;;;;;3.27;1.17;;;7.30;99.90;;;;;;5061374;28;20177;-83
2021/05/20 05:43:44;;;;;;;1.40;1.07;;;7.30;99.90;;;;;;5044978;28;20564;-84
2021/05/20 05:46:09;;;;;;;1.10;1.00;;;7.30;99.90;;;;;;5062344;28;20184;-84
2021/05/20 05:48:35;;;;;;;1.03;0.90;;;7.40;99.90;;;;;;5061856;28;20181;-83
2021/05/20 05:51:02;;;;;;;1.33;1.23;;;;;;;;;;5045302;28;20205;-84
2021/05/20 05:53:29;;;;;;;1.97;1.03;;;7.60;99.90;;;;;;5045516;28;20440;-84
2021/05/20 05:55:56;;;;;;;0.90;0.90;;;7.50;99.90;;;;;;5045522;28;20205;-83
2021/05/20 05:58:22;;;;;;;2.23;1.37;;;;;;;;;;5062854;28;20416;-84
2021/05/20 06:00:47;;;;;;;1.17;1.07;;;7.70;99.90;;;;;;5046665;28;20405;-83
2021/05/20 06:03:16;;;;;;;1.07;0.97;;;7.70;99.90;;;;;;5063519;28;20701;-84
2021/05/20 06:05:42;;;;;;;2.63;1.80;;;7.70;99.90;;;;;;5047571;28;20177;-84
2021/05/20 06:08:08;;;;;;;2.83;1.50;;;7.70;99.90;;;;;;5064921;28;20216;-84
2021/05/20 06:10:35;;;;;;;0.87;0.83;;;;;;;;;;5066002;28;20185;-84
2021/05/20 06:13:01;;;;;;;1.87;1.00;;;7.70;99.90;;;;;;5065923;28;20236;-84
2021/05/20 06:15:27;;;;;;;1.20;1.03;;;;;;;;;;5047568;28;20212;-84
2021/05/20 06:17:53;;;;;;;1.97;0.90;;;7.90;99.90;;;;;;5047786;28;20224;-84
2021/05/20 06:20:18;;;;;;;5.27;1.90;;;8.00;99.90;;;;;;5048241;28;20170;-84
2021/05/20 06:22:44;;;;;;;1.93;1.67;;;8.00;99.90;;;;;;5048322;28;20209;-84
2021/05/20 06:25:10;;;;;;;3.97;2.70;;;8.10;99.90;;;;;;5047937;28;20189;-85
2021/05/20 06:27:36;;;;;;;1.13;1.00;;;8.60;99.90;;;;;;5048462;28;20538;-84
2021/05/20 06:30:02;;;;;;;1.10;1.00;;;;;;;;;;5047950;28;20178;-84
2021/05/20 06:32:28;;;;;;;0.97;0.87;;;8.60;99.90;;;;;;5048206;28;20198;-84
2021/05/20 06:34:54;;;;;;;1.07;0.83;;;8.60;99.90;;;;;;5048015;28;20198;-84
2021/05/20 06:37:20;;;;;;;3.97;2.17;;;;;;;;;;5048841;28;20182;-84
2021/05/20 06:39:45;;;;;;;2.93;1.47;;;8.70;99.90;;;;;;5048863;28;20178;-84
2021/05/20 06:42:14;;;;;;;2.37;0.90;;;8.60;99.90;;;;;;5053057;28;20201;-84
2021/05/20 06:44:41;;;;;;;1.27;0.87;;;8.60;99.90;;;;;;5044508;28;20191;-84
2021/05/20 06:47:07;;;;;;;1.00;0.90;;;8.60;99.90;;;;;;5041518;28;20181;-84
2021/05/20 06:49:33;;;;;;;1.30;1.10;;;8.70;99.90;;;;;;5057596;28;20602;-84
2021/05/20 06:51:59;;;;;;;2.00;1.40;;;8.80;99.90;;;;;;5054309;28;20201;-84
2021/05/20 06:54:25;;;;;;;1.40;1.30;;;;;;;;;;5059874;28;20196;-84
2021/05/20 06:56:55;;;;;;;3.23;1.00;;;8.90;99.90;;;;;;5042425;28;20256;-84
2021/05/20 07:02:05;;;;;;;1.40;1.00;;;8.90;99.90;;;;;;5063601;28;20247;-84
2021/05/20 07:04:31;;;;;;;3.03;0.90;;;;;;;;;;5062745;28;20200;-84
2021/05/20 07:07:01;;;;;;;1.43;0.90;;;8.70;99.90;;;;;;5045432;28;20175;-84
2021/05/20 07:09:28;;;;;;;1.00;0.80;;;8.70;99.90;;;;;;5044810;28;20213;-84
2021/05/20 07:11:55;;;;;;;1.50;1.20;;;9.10;99.90;;;;;;5046016;28;20184;-84
2021/05/20 07:14:21;;;;;;;1.70;0.97;;;9.10;99.90;;;;;;5044213;28;20868;-84
2021/05/20 07:16:47;;;;;;;1.53;0.73;;;9.40;99.90;;;;;;5044600;28;20178;-85
2021/05/20 07:19:13;;;;;;;1.60;1.17;;;9.30;99.90;;;;;;5046055;28;20178;-85
2021/05/20 07:21:38;;;;;;;0.80;0.70;;;8.80;99.90;;;;;;5044529;28;20186;-84
2021/05/20 07:24:11;;;;;;;1.27;0.80;;;8.80;99.90;;;;;;5015542;28;21081;-84
2021/05/20 07:26:37;;;;;;;1.43;1.17;;;8.70;99.90;;;;;;5013752;28;20175;-84
2021/05/20 07:29:04;;;;;;;1.00;0.70;;;8.70;99.90;;;;;;5016702;28;20172;-83
2021/05/20 07:31:30;;;;;;;1.03;0.80;;;8.80;99.90;;;;;;5024733;28;20196;-84
2021/05/20 07:33:55;;;;;;;2.57;2.37;;;9.00;99.90;;;;;;5032548;28;20222;-83
2021/05/20 07:36:22;;;;;;;0.93;0.80;;;9.40;99.90;;;;;;5031661;28;20179;-84
2021/05/20 07:38:48;;;;;;;0.70;0.70;;;9.70;99.90;;;;;;5015969;28;20197;-85
2021/05/20 07:41:15;;;;;;;0.97;0.80;;;9.90;99.90;;;;;;5014117;28;20187;-85
2021/05/20 07:43:40;;;;;;;1.00;0.63;;;9.80;99.90;;;;;;5016905;28;20210;-85
2021/05/20 07:46:06;;;;;;;0.80;0.50;;;;;;;;;;5016720;28;20183;-85
2021/05/20 07:48:33;;;;;;;1.57;0.70;;;10.00;99.90;;;;;;5016935;28;20179;-86
2021/05/20 07:51:04;;;;;;;1.30;0.63;;;10.20;99.90;;;;;;5016730;28;20549;-86
2021/05/20 07:53:30;;;;;;;0.50;0.50;;;10.20;99.90;;;;;;5015287;28;20223;-86
2021/05/20 07:55:56;;;;;;;0.60;0.50;;;9.90;99.90;;;;;;5015298;28;20176;-86
2021/05/20 07:58:23;;;;;;;1.37;0.53;;;9.70;99.90;;;;;;5017279;28;20211;-86
2021/05/20 08:00:49;;;;;;;1.27;0.70;;;9.80;99.90;;;;;;5015871;28;20211;-86
2021/05/20 08:03:25;;;;;;;0.83;0.70;;;9.80;99.90;;;;;;5016614;28;20607;-86
2021/05/20 08:11:04;;;;;;;0.80;0.40;;;9.80;99.90;;;;;;5016883;28;20176;-86
2021/05/20 08:13:31;;;;;;;0.47;0.30;;;9.40;99.90;;;;;;5015367;28;20259;-86
2021/05/20 08:15:58;;;;;;;0.40;0.40;;;9.30;99.90;;;;;;5015422;28;20271;-86
2021/05/20 08:18:24;;;;;;;0.27;0.23;;;9.30;99.90;;;;;;5013093;28;20236;-85
2021/05/20 08:20:49;;;;;;;0.40;0.40;;;9.20;99.90;;;;;;5011736;28;20645;-86
2021/05/20 08:23:15;;;;;;;0.53;0.33;;;;;;;;;;5015425;28;20226;-86
2021/05/20 08:25:41;;;;;;;0.30;0.30;;;9.50;99.90;;;;;;5015923;28;20242;-86
2021/05/20 08:28:07;;;;;;;0.30;0.30;;;;;;;;;;5015737;28;20182;-86
2021/05/20 08:30:33;;;;;;;1.27;0.40;;;9.80;99.90;;;;;;5016132;28;20527;-86
2021/05/20 08:32:59;;;;;;;0.33;0.33;;;9.80;99.90;;;;;;5015484;28;20223;-86
2021/05/20 08:35:25;;;;;;;0.30;0.30;;;9.90;99.90;;;;;;5003168;28;20199;-85
2021/05/20 08:37:50;;;;;;;0.40;0.40;;;10.00;99.90;;;;;;5003325;28;20209;-86
2021/05/20 08:40:18;;;;;;;0.27;0.20;;;10.10;99.90;;;;;;5002993;28;20176;-85
2021/05/20 08:42:44;;;;;;;0.30;0.30;;;10.60;99.90;;;;;;5002516;28;20210;-85
2021/05/20 08:45:25;;;;;;;0.33;0.33;;;10.60;99.90;;;;;;5002428;28;20183;-86
2021/05/20 08:47:52;;;;;;;0.40;0.40;;;10.70;99.90;;;;;;5002327;28;20171;-86
2021/05/20 08:50:20;;;;;;;0.23;0.23;;;10.40;99.90;;;;;;5002086;28;20205;-87
2021/05/20 08:52:46;;;;;;;0.30;0.30;;;10.30;99.90;;;;;;5000794;28;20210;-86
2021/05/20 08:55:18;;;;;;;0.40;0.40;;;10.20;99.90;;;;;;5001739;28;20324;-86
2021/05/20 08:57:44;;;;;;;0.30;0.30;;;10.20;99.90;;;;;;5001583;28;20183;-86
2021/05/20 09:00:19;;;;;;;0.30;0.30;;;10.60;99.90;;;;;;5002253;28;20597;-86
2021/05/20 09:02:45;;;;;;;0.30;0.30;;;10.80;99.90;;;;;;5001213;28;20204;-86
2021/05/20 09:05:11;;;;;;;1.13;0.50;;;10.60;99.90;;;;;;5000876;28;20175;-86
2021/05/20 09:07:40;;;;;;;0.30;0.30;;;10.40;99.90;;;;;;4999155;28;20182;-87
2021/05/20 09:10:13;;;;;;;0.30;0.30;;;10.10;99.90;;;;;;4997543;28;20644;-86
2021/05/20 09:12:40;;;;;;;0.30;0.30;;;9.90;99.90;;;;;;5006318;28;20249;-86
2021/05/20 09:15:26;;;;;;;0.30;0.30;;;9.90;99.90;;;;;;4999026;28;20176;-86
2021/05/20 09:17:54;;;;;;;0.30;0.30;;;9.70;99.90;;;;;;4998694;28;20175;-86
2021/05/20 09:20:22;;;;;;;1.57;0.37;;;9.70;99.90;;;;;;4998650;28;20177;-86
2021/05/20 09:23:03;;;;;;;2.37;0.50;;;9.80;99.90;;;;;;4998983;28;20219;-86
2021/05/20 09:25:31;;;;;;;0.60;0.47;;;10.70;99.90;;;;;;4999345;28;20164;-85
2021/05/20 09:27:57;;;;;;;0.30;0.30;;;11.80;99.90;;;;;;4998862;28;20720;-86
2021/05/20 09:30:28;;;;;;;0.47;0.30;;;12.70;99.90;;;;;;4998647;28;20227;-86
2021/05/20 09:33:09;;;;;;;2.67;0.40;;;13.20;99.90;;;;;;4997450;28;20230;-86
2021/05/20 09:35:38;;;;;;;0.53;0.50;;;13.40;99.90;;;;;;4995883;28;20232;-86
2021/05/20 09:38:14;;;;;;;0.30;0.30;;;13.50;99.90;;;;;;4995951;28;20207;-86
2021/05/20 09:40:44;;;;;;;0.43;0.43;;;13.70;99.90;;;;;;4996208;28;20174;-86
2021/05/20 09:43:14;;;;;;;0.80;0.50;;;13.70;99.90;;;;;;4996380;28;20192;-87
2021/05/20 09:45:40;;;;;;;0.80;0.50;;;13.20;99.90;;;;;;4994175;28;20184;-86
2021/05/20 09:48:08;;;;;;;0.37;0.37;;;13.30;99.90;;;;;;5008262;28;20243;-87
2021/05/20 09:51:00;;;;;;;0.50;0.50;;;13.10;99.90;;;;;;5001585;28;20211;-87
2021/05/20 09:53:27;;;;;;;0.50;0.50;;;12.80;99.90;;;;;;5006134;28;20219;-86
2021/05/20 09:55:56;;;;;;;0.50;0.50;;;12.90;99.90;;;;;;4998867;28;20176;-87
2021/05/20 09:58:27;;;;;;;0.40;0.40;;;13.50;99.90;;;;;;4998128;28;20254;-87
2021/05/20 10:00:57;;;;;;;0.73;0.73;;;14.50;99.90;;;;;;4999184;28;20163;-86
2021/05/20 10:03:24;;;;;;;1.83;1.00;;;15.00;99.90;;;;;;4997326;28;20203;-86
2021/05/20 10:06:01;;;;;;;0.97;0.80;;;14.60;99.90;;;;;;4998627;28;20182;-86
2021/05/20 10:08:32;;;;;;;0.70;0.67;;;13.60;99.90;;;;;;4998103;28;20186;-87
2021/05/20 10:11:03;;;;;;;0.70;0.67;;;12.80;99.90;;;;;;4999903;28;20551;-86
2021/05/20 10:13:29;;;;;;;0.50;0.50;;;12.50;99.90;;;;;;4999484;28;20694;-86
2021/05/20 10:15:57;;;;;;;0.60;0.40;;;12.30;99.90;;;;;;4999196;28;20176;-86
2021/05/20 10:18:26;;;;;;;1.20;0.70;;;11.70;99.90;;;;;;4997921;28;20183;-86
2021/05/20 10:21:03;;;;;;;1.43;0.70;;;11.50;99.90;;;;;;4999526;28;20233;-86
2021/05/20 10:23:29;;;;;;;0.57;0.50;;;11.20;99.90;;;;;;4999567;28;20218;-86
2021/05/20 10:25:59;;;;;;;0.50;0.50;;;11.00;99.90;;;;;;4998216;28;20184;-86
2021/05/20 10:28:26;;;;;;;0.60;0.60;;;11.10;99.90;;;;;;4998042;28;20543;-86
2021/05/20 10:30:54;;;;;;;0.40;0.40;;;11.30;99.90;;;;;;4999076;28;20226;-86
2021/05/20 10:33:26;;;;;;;0.53;0.53;;;12.20;99.90;;;;;;4998183;28;20211;-86
2021/05/20 10:35:53;;;;;;;0.40;0.40;;;12.90;99.90;;;;;;4998585;28;20188;-86
2021/05/20 10:38:25;;;;;;;0.70;0.70;;;13.70;99.90;;;;;;5003340;28;20240;-87
2021/05/20 10:41:10;;;;;;;0.50;0.50;;;14.40;99.90;;;;;;5013761;28;20249;-86
2021/05/20 10:43:36;;;;;;;1.50;0.70;;;15.00;99.90;;;;;;5016016;28;20203;-86
2021/05/20 10:46:13;;;;;;;0.60;0.60;;;14.40;99.90;;;;;;5007905;28;20586;-87
2021/05/20 10:48:52;;;;;;;1.13;0.50;;;13.70;99.90;;;;;;5002857;28;20202;-86
2021/05/20 10:51:36;;;;;;;0.50;0.50;;;13.30;99.90;;;;;;5003405;28;20179;-87
2021/05/20 10:54:04;;;;;;;0.80;0.60;;;14.40;99.90;;;;;;5003003;28;20238;-86
2021/05/20 10:56:31;;;;;;;3.77;0.90;;;14.80;99.90;;;;;;5006955;28;20178;-87
2021/05/20 10:58:59;;;;;;;0.63;0.63;;;14.80;99.90;;;;;;5000334;28;20200;-87
2021/05/20 11:01:24;;;;;;;0.70;0.50;;;14.70;99.90;;;;;;5001566;28;20577;-87
2021/05/20 11:03:54;;;;;;;1.90;0.50;;;15.20;99.90;;;;;;4999456;28;20199;-87
2021/05/20 11:06:43;;;;;;;1.33;0.70;;;15.10;99.90;;;;;;4999422;28;20179;-87
2021/05/20 11:09:14;;;;;;;0.80;0.63;;;14.40;99.90;;;;;;5000666;28;20206;-87
2021/05/20 11:11:40;;;;;;;1.17;0.60;;;15.00;99.90;;;;;;4999303;28;20263;-87
2021/05/20 11:14:12;;;;;;;0.60;0.60;;;16.20;99.90;;;;;;4999401;28;20231;-87
2021/05/20 11:16:39;;;;;;;0.60;0.60;;;15.70;99.90;;;;;;4998324;28;20180;-86
2021/05/20 11:22:09;;;;;;;1.23;0.60;;;13.40;99.90;;;;;;4998833;28;20712;-86
2021/05/20 11:24:41;;;;;;;1.17;0.50;;;13.90;99.90;;;;;;5002396;28;20254;-86
2021/05/20 11:27:16;;;;;;;0.70;0.60;;;14.80;99.90;;;;;;5000480;28;20168;-87
2021/05/20 11:29:44;;;;;;;0.60;0.60;;;14.50;99.90;;;;;;5000703;28;20206;-87
2021/05/20 11:32:20;;;;;;;0.80;0.50;;;14.40;99.90;;;;;;4999509;28;20215;-87
2021/05/20 11:37:39;;;;;;;0.60;0.60;;;16.10;99.90;;;;;;5002468;28;20202;-87
2021/05/20 11:40:23;;;;;;;0.80;0.80;;;16.10;99.90;;;;;;5002273;28;20168;-86
2021/05/20 11:42:49;;;;;;;0.60;0.50;;;16.40;98.90;;;;;;5000023;28;20286;-85
2021/05/20 11:45:24;;;;;;;0.50;0.50;;;15.80;98.80;;;;;;5000407;28;20595;-85
2021/05/20 11:48:01;;;;;;;1.13;0.70;;;16.70;99.70;;;;;;5000438;28;20171;-87
2021/05/20 11:50:29;;;;;;;1.33;0.60;;;17.20;97.90;;;;;;4999804;28;20179;-86
2021/05/20 11:52:55;;;;;;;1.00;0.70;;;16.70;96.30;;;;;;4999875;28;20213;-87
2021/05/20 11:55:23;;;;;;;1.00;0.80;;;16.60;97.20;;;;;;4999599;28;20212;-87
2021/05/20 11:58:00;;;;;;;0.70;0.70;;;15.90;94.90;;;;;;5000240;28;20172;-86
2021/05/20 12:00:26;;;;;;;1.20;0.63;;;15.10;98.50;;;;;;4999959;28;20191;-86
2021/05/20 12:02:57;;;;;;;0.50;0.50;;;15.30;98.20;;;;;;5000445;28;20195;-87
2021/05/20 12:05:23;;;;;;;0.80;0.50;;;14.40;98.00;;;;;;4997146;28;20190;-86
2021/05/20 12:07:49;;;;;;;1.53;0.67;;;13.60;99.60;;;;;;4998281;28;20172;-86
2021/05/20 12:10:21;;;;;;;0.77;0.60;;;13.50;99.90;;;;;;5000125;28;20234;-86
2021/05/20 12:12:56;;;;;;;0.70;0.70;;;13.40;99.90;;;;;;5000709;28;20241;-86
2021/05/20 12:15:25;;;;;;;1.47;0.67;;;13.50;99.90;;;;;;5001492;28;20262;-86
2021/05/20 12:17:51;;;;;;;0.53;0.50;;;14.40;99.90;;;;;;5002853;28;20176;-86
2021/05/20 12:20:19;;;;;;;1.77;0.70;;;14.60;98.80;;;;;;5004237;28;20172;-86
2021/05/20 12:22:45;;;;;;;0.77;0.57;;;15.50;98.00;;;;;;4997056;28;20310;-86
2021/05/20 12:25:15;;;;;;;0.60;0.40;;;15.90;98.10;;;;;;4997264;28;20385;-87
2021/05/20 12:27:42;;;;;;;0.53;0.40;;;16.60;97.20;;;;;;4996731;28;20633;-87
2021/05/20 12:30:12;;;;;;;1.60;0.77;;;17.10;96.00;;;;;;4995295;28;20190;-87
2021/05/20 12:32:46;;;;;;;0.73;0.50;;;17.20;93.10;;;;;;4995176;28;20298;-87
2021/05/20 12:35:31;;;;;;;0.50;0.50;;;15.80;94.30;;;;;;4996739;28;20175;-86
2021/05/20 12:38:05;;;;;;;1.53;0.80;;;14.80;96.00;;;;;;4995055;28;20175;-86
2021/05/20 12:40:43;;;;;;;0.63;0.60;;;13.30;99.90;;;;;;4995673;28;20176;-86
2021/05/20 12:43:17;;;;;;;0.70;0.70;;;13.20;99.90;;;;;;5008466;28;20618;-86
2021/05/20 12:45:49;;;;;;;1.27;0.60;;;13.20;99.90;;;;;;4998321;28;20178;-86
2021/05/20 12:48:20;;;;;;;1.30;0.50;;;13.10;99.90;;;;;;4998494;28;20180;-86
2021/05/20 12:50:45;;;;;;;0.50;0.50;;;12.90;99.90;;;;;;4999787;28;20508;-86
2021/05/20 12:53:11;;;;;;;1.43;0.60;;;12.80;99.90;;;;;;4999483;28;20223;-86
2021/05/20 12:55:41;;;;;;;3.17;0.50;;;14.30;99.90;;;;;;4997608;28;20176;-86
2021/05/20 12:58:08;;;;;;;1.13;0.50;;;16.00;99.50;;;;;;4999360;28;20176;-86
2021/05/20 13:00:53;;;;;;;0.50;0.50;;;15.10;97.30;;;;;;4998499;28;20654;-85
2021/05/20 13:03:19;;;;;;;0.33;0.33;;;15.80;98.00;;;;;;4997303;28;20199;-86
2021/05/20 13:05:49;;;;;;;0.50;0.50;;;16.60;96.30;;;;;;4997417;28;20271;-86
2021/05/20 13:08:23;;;;;;;2.33;0.60;;;15.70;97.10;;;;;;4998363;28;20618;-86
2021/05/20 13:10:49;;;;;;;0.40;0.40;;;16.40;99.30;;;;;;4998701;28;20175;-86
2021/05/20 13:13:26;;;;;;;0.50;0.40;;;15.50;97.80;;;;;;4996851;28;20218;-86
2021/05/20 13:15:57;;;;;;;0.63;0.63;;;16.40;96.10;;;;;;4996461;28;20238;-86
2021/05/20 13:19:01;;;;;;;3.80;0.63;;;16.80;97.90;;;;;;4997576;28;20199;-84
2021/05/20 13:24:19;;;;;;;0.50;0.50;;;15.10;95.70;;;;;;4998726;28;20241;-87
2021/05/20 13:26:45;;;;;;;1.73;0.63;;;16.10;99.40;;;;;;4997560;28;20202;-87
2021/05/20 13:29:11;;;;;;;0.50;0.50;;;16.80;97.80;;;;;;4996371;28;20637;-87
2021/05/20 13:31:36;;;;;;;0.77;0.73;;;16.30;94.90;;;;;;4998483;28;20164;-87
2021/05/20 13:34:02;;;;;;;1.27;0.60;;;16.10;97.10;;;;;;4996051;28;20211;-87
2021/05/20 13:36:28;;;;;;;0.50;0.50;;;16.70;97.30;;;;;;5001752;28;20230;-87
2021/05/20 13:38:55;;;;;;;0.80;0.80;;;16.90;94.20;;;;;;4995387;28;20173;-83